sensor_id;sensor_type;location;lat;lon;timestamp;pressure;altitude;pressure_sealevel;temperature;humidity
42511;BME280;28141;51.120;17.114;2023-09-07T00:01:40;102509.52;;;30.18;37.09
42511;BME280;28141;51.120;17.114;2023-09-07T00:04:54;102508.66;;;30.17;37.15
42511;BME280;28141;51.120;17.114;2023-09-07T00:08:08;102514.93;;;30.12;37.77
42511;BME280;28141;51.120;17.114;2023-09-07T00:11:48;102519.05;;;30.10;37.61
42511;BME280;28141;51.120;17.114;2023-09-07T00:15:03;102519.27;;;30.08;38.05
42511;BME280;28141;51.120;17.114;2023-09-07T00:18:19;102523.16;;;30.07;37.25
42511;BME280;28141;51.120;17.114;2023-09-07T00:21:34;102524.73;;;30.03;37.30
42511;BME280;28141;51.120;17.114;2023-09-07T00:25:17;102526.04;;;30.01;37.76
42511;BME280;28141;51.120;17.114;2023-09-07T00:28:33;102518.75;;;30.00;37.59
42511;BME280;28141;51.120;17.114;2023-09-07T00:31:47;102519.20;;;29.97;37.69
42511;BME280;28141;51.120;17.114;2023-09-07T00:35:01;102511.07;;;29.95;38.05
42511;BME280;28141;51.120;17.114;2023-09-07T00:38:41;102521.36;;;29.95;37.87
42511;BME280;28141;51.120;17.114;2023-09-07T00:41:55;102515.16;;;29.93;37.44
42511;BME280;28141;51.120;17.114;2023-09-07T00:45:10;102511.09;;;29.89;38.08
42511;BME280;28141;51.120;17.114;2023-09-07T00:48:23;102504.43;;;29.90;37.95
42511;BME280;28141;51.120;17.114;2023-09-07T00:52:05;102509.39;;;29.88;37.94
42511;BME280;28141;51.120;17.114;2023-09-07T00:55:19;102499.93;;;29.89;37.42
42511;BME280;28141;51.120;17.114;2023-09-07T00:58:36;102500.33;;;29.92;38.26
42511;BME280;28141;51.120;17.114;2023-09-07T01:01:50;102498.39;;;29.93;38.35
42511;BME280;28141;51.120;17.114;2023-09-07T01:09:03;102498.35;;;29.74;37.93
42511;BME280;28141;51.120;17.114;2023-09-07T01:12:18;102503.04;;;29.81;38.69
42511;BME280;28141;51.120;17.114;2023-09-07T01:15:59;102498.53;;;29.80;38.04
42511;BME280;28141;51.120;17.114;2023-09-07T01:19:13;102502.64;;;29.77;38.16
42511;BME280;28141;51.120;17.114;2023-09-07T01:22:27;102501.78;;;29.76;37.45
42511;BME280;28141;51.120;17.114;2023-09-07T01:25:42;102503.73;;;29.76;38.38
42511;BME280;28141;51.120;17.114;2023-09-07T01:29:23;102502.64;;;29.77;38.06
42511;BME280;28141;51.120;17.114;2023-09-07T01:32:38;102501.78;;;29.76;38.19
42511;BME280;28141;51.120;17.114;2023-09-07T01:35:53;102499.48;;;29.73;38.50
42511;BME280;28141;51.120;17.114;2023-09-07T01:39:08;102494.27;;;29.77;37.30
42511;BME280;28141;51.120;17.114;2023-09-07T01:42:51;102503.95;;;29.74;38.04
42511;BME280;28141;51.120;17.114;2023-09-07T01:46:05;102502.72;;;29.70;37.57
42511;BME280;28141;51.120;17.114;2023-09-07T01:49:19;102501.02;;;29.69;38.70
42511;BME280;28141;51.120;17.114;2023-09-07T01:52:33;102501.47;;;29.66;37.81
42511;BME280;28141;51.120;17.114;2023-09-07T01:56:13;102503.63;;;29.64;38.20
42511;BME280;28141;51.120;17.114;2023-09-07T01:59:27;102515.28;;;29.61;38.66
42511;BME280;28141;51.120;17.114;2023-09-07T02:02:41;102510.16;;;29.58;38.62
42511;BME280;28141;51.120;17.114;2023-09-07T02:05:55;102509.29;;;29.58;38.88
42511;BME280;28141;51.120;17.114;2023-09-07T02:09:09;102512.32;;;29.56;38.04
42511;BME280;28141;51.120;17.114;2023-09-07T02:12:49;102486.30;;;29.37;38.32
42511;BME280;28141;51.120;17.114;2023-09-07T02:16:04;102505.51;;;29.52;37.78
42511;BME280;28141;51.120;17.114;2023-09-07T02:19:18;102510.23;;;29.52;38.06
42511;BME280;28141;51.120;17.114;2023-09-07T02:22:37;102515.80;;;29.52;38.80
42511;BME280;28141;51.120;17.114;2023-09-07T02:25:51;102512.16;;;29.51;38.41
42511;BME280;28141;51.120;17.114;2023-09-07T02:29:31;102514.55;;;29.48;38.40
42511;BME280;28141;51.120;17.114;2023-09-07T02:32:45;102516.71;;;29.46;38.44
42511;BME280;28141;51.120;17.114;2023-09-07T02:35:59;102519.27;;;29.47;38.38
42511;BME280;28141;51.120;17.114;2023-09-07T02:39:13;102519.27;;;29.47;38.60
42511;BME280;28141;51.120;17.114;2023-09-07T02:42:53;102510.72;;;29.42;38.45
42511;BME280;28141;51.120;17.114;2023-09-07T02:46:07;102514.15;;;29.44;38.13
42511;BME280;28141;51.120;17.114;2023-09-07T02:49:21;102507.72;;;29.44;38.85
42511;BME280;28141;51.120;17.114;2023-09-07T02:52:35;102518.43;;;29.47;37.82
42511;BME280;28141;51.120;17.114;2023-09-07T02:56:15;102517.56;;;29.46;38.42
42511;BME280;28141;51.120;17.114;2023-09-07T02:59:29;102515.64;;;29.47;38.79
42511;BME280;28141;51.120;17.114;2023-09-07T03:02:45;102521.23;;;29.47;38.78
42511;BME280;28141;51.120;17.114;2023-09-07T03:06:08;102518.34;;;29.53;38.37
42511;BME280;28141;51.120;17.114;2023-09-07T03:09:21;102523.16;;;29.46;37.78
42511;BME280;28141;51.120;17.114;2023-09-07T03:13:01;102526.80;;;29.47;38.22
42511;BME280;28141;51.120;17.114;2023-09-07T03:16:16;102525.09;;;29.46;38.29
42511;BME280;28141;51.120;17.114;2023-09-07T03:19:31;102526.88;;;29.40;38.24
42511;BME280;28141;51.120;17.114;2023-09-07T03:22:47;102521.75;;;29.37;37.96
42511;BME280;28141;51.120;17.114;2023-09-07T03:26:27;102521.14;;;29.28;38.14
42511;BME280;28141;51.120;17.114;2023-09-07T03:29:40;102529.81;;;29.20;38.05
42511;BME280;28141;51.120;17.114;2023-09-07T03:32:55;102525.54;;;29.18;38.45
42511;BME280;28141;51.120;17.114;2023-09-07T03:36:08;102524.27;;;29.14;37.30
42511;BME280;28141;51.120;17.114;2023-09-07T03:39:53;102529.39;;;29.17;38.21
42511;BME280;28141;51.120;17.114;2023-09-07T03:43:07;102526.41;;;29.12;37.79
42511;BME280;28141;51.120;17.114;2023-09-07T03:46:21;102532.92;;;29.05;38.04
42511;BME280;28141;51.120;17.114;2023-09-07T03:49:35;102529.49;;;29.03;38.37
42511;BME280;28141;51.120;17.114;2023-09-07T03:53:15;102530.41;;;28.97;38.28
42511;BME280;28141;51.120;17.114;2023-09-07T03:56:29;102522.05;;;28.97;38.32
42511;BME280;28141;51.120;17.114;2023-09-07T03:59:43;102522.50;;;28.94;38.35
42511;BME280;28141;51.120;17.114;2023-09-07T04:02:57;102524.65;;;28.92;38.56
42511;BME280;28141;51.120;17.114;2023-09-07T04:06:37;102531.66;;;29.01;38.16
42511;BME280;28141;51.120;17.114;2023-09-07T04:09:51;102532.92;;;29.05;37.77
42511;BME280;28141;51.120;17.114;2023-09-07T04:13:05;102538.52;;;29.05;38.08
42511;BME280;28141;51.120;17.114;2023-09-07T04:16:20;102538.95;;;29.02;37.89
42511;BME280;28141;51.120;17.114;2023-09-07T04:20:00;102541.32;;;28.99;37.89
42511;BME280;28141;51.120;17.114;2023-09-07T04:23:14;102536.38;;;29.01;38.16
42511;BME280;28141;51.120;17.114;2023-09-07T04:26:28;102543.73;;;28.95;37.88
42511;BME280;28141;51.120;17.114;2023-09-07T04:29:42;102541.60;;;28.91;38.18
42511;BME280;28141;51.120;17.114;2023-09-07T04:33:22;102548.48;;;28.88;37.92
42511;BME280;28141;51.120;17.114;2023-09-07T04:36:36;102538.24;;;28.82;37.78
42511;BME280;28141;51.120;17.114;2023-09-07T04:39:51;102542.30;;;28.86;37.73
42511;BME280;28141;51.120;17.114;2023-09-07T04:43:09;102555.55;;;28.91;37.82
42511;BME280;28141;51.120;17.114;2023-09-07T04:46:49;102555.16;;;28.87;37.84
42511;BME280;28141;51.120;17.114;2023-09-07T04:50:06;102559.03;;;28.86;37.91
42511;BME280;28141;51.120;17.114;2023-09-07T04:53:21;102557.90;;;28.94;38.16
42511;BME280;28141;51.120;17.114;2023-09-07T04:56:35;102557.48;;;28.90;37.86
42511;BME280;28141;51.120;17.114;2023-09-07T04:59:48;102561.61;;;28.88;38.18
42511;BME280;28141;51.120;17.114;2023-09-07T05:03:28;102559.20;;;28.91;37.81
42511;BME280;28141;51.120;17.114;2023-09-07T05:06:42;102568.48;;;28.85;38.25
42511;BME280;28141;51.120;17.114;2023-09-07T05:09:57;102565.69;;;28.85;38.22
42511;BME280;28141;51.120;17.114;2023-09-07T05:13:11;102572.92;;;28.93;37.78
42511;BME280;28141;51.120;17.114;2023-09-07T05:16:51;102570.35;;;28.91;38.01
42511;BME280;28141;51.120;17.114;2023-09-07T05:20:07;102571.00;;;28.93;37.96
42511;BME280;28141;51.120;17.114;2023-09-07T05:23:23;102574.50;;;28.82;38.32
42511;BME280;28141;51.120;17.114;2023-09-07T05:26:39;102573.79;;;28.93;38.09
42511;BME280;28141;51.120;17.114;2023-09-07T05:30:19;102580.45;;;28.92;38.13
42511;BME280;28141;51.120;17.114;2023-09-07T05:33:33;102583.24;;;28.92;38.03
42511;BME280;28141;51.120;17.114;2023-09-07T05:36:48;102589.04;;;28.91;38.00
42511;BME280;28141;51.120;17.114;2023-09-07T05:40:03;102591.16;;;28.95;38.54
42511;BME280;28141;51.120;17.114;2023-09-07T05:43:43;102594.27;;;29.12;37.99
42511;BME280;28141;51.120;17.114;2023-09-07T05:46:57;102585.67;;;29.14;38.16
42511;BME280;28141;51.120;17.114;2023-09-07T05:50:12;102592.95;;;29.15;38.30
42511;BME280;28141;51.120;17.114;2023-09-07T05:53:26;102588.65;;;29.19;37.71
42511;BME280;28141;51.120;17.114;2023-09-07T05:57:06;102593.31;;;29.25;37.90
42511;BME280;28141;51.120;17.114;2023-09-07T06:00:20;102599.84;;;29.12;37.98
42511;BME280;28141;51.120;17.114;2023-09-07T06:03:35;102601.11;;;29.16;37.94
42511;BME280;28141;51.120;17.114;2023-09-07T06:06:49;102591.38;;;29.25;38.17
42511;BME280;28141;51.120;17.114;2023-09-07T06:10:31;102595.66;;;29.28;38.46
42511;BME280;28141;51.120;17.114;2023-09-07T06:13:45;102601.82;;;29.36;38.67
42511;BME280;28141;51.120;17.114;2023-09-07T06:17:00;102594.97;;;29.39;38.88
42511;BME280;28141;51.120;17.114;2023-09-07T06:20:14;102601.76;;;29.50;38.82
42511;BME280;28141;51.120;17.114;2023-09-07T06:23:28;102600.60;;;29.57;38.85
42511;BME280;28141;51.120;17.114;2023-09-07T06:27:09;102607.23;;;29.63;38.35
42511;BME280;28141;51.120;17.114;2023-09-07T06:30:23;102606.12;;;29.64;38.48
42511;BME280;28141;51.120;17.114;2023-09-07T06:33:37;102602.83;;;29.73;38.95
42511;BME280;28141;51.120;17.114;2023-09-07T06:36:51;102606.71;;;29.72;39.06
42511;BME280;28141;51.120;17.114;2023-09-07T06:40:31;102614.71;;;29.87;39.10
42511;BME280;28141;51.120;17.114;2023-09-07T06:43:45;102608.22;;;29.93;39.68
42511;BME280;28141;51.120;17.114;2023-09-07T06:46:58;102609.87;;;30.01;38.95
42511;BME280;28141;51.120;17.114;2023-09-07T06:50:12;102607.73;;;30.03;38.54
42511;BME280;28141;51.120;17.114;2023-09-07T06:53:52;102621.84;;;30.08;38.87
42511;BME280;28141;51.120;17.114;2023-09-07T06:57:07;102620.98;;;30.07;38.30
42511;BME280;28141;51.120;17.114;2023-09-07T07:00:24;102623.09;;;30.12;38.26
42511;BME280;28141;51.120;17.114;2023-09-07T07:03:38;102625.44;;;30.15;39.06
42511;BME280;28141;51.120;17.114;2023-09-07T07:07:18;102626.06;;;30.17;38.79
42511;BME280;28141;51.120;17.114;2023-09-07T07:10:32;102624.05;;;30.24;38.90
42511;BME280;28141;51.120;17.114;2023-09-07T07:13:46;102631.97;;;30.27;38.63
42511;BME280;28141;51.120;17.114;2023-09-07T07:17:00;102628.09;;;30.28;39.24
42511;BME280;28141;51.120;17.114;2023-09-07T07:20:44;102637.88;;;30.37;38.73
42511;BME280;28141;51.120;17.114;2023-09-07T07:23:58;102636.30;;;30.41;38.70
42511;BME280;28141;51.120;17.114;2023-09-07T07:27:12;102633.91;;;30.45;39.13
42511;BME280;28141;51.120;17.114;2023-09-07T07:30:30;102634.68;;;30.52;38.73
42511;BME280;28141;51.120;17.114;2023-09-07T07:34:09;102635.96;;;30.56;38.80
42511;BME280;28141;51.120;17.114;2023-09-07T07:37:23;102634.16;;;30.62;39.00
42511;BME280;28141;51.120;17.114;2023-09-07T07:40:37;102633.36;;;30.73;39.04
42511;BME280;28141;51.120;17.114;2023-09-07T07:43:51;102638.49;;;30.76;38.78
42511;BME280;28141;51.120;17.114;2023-09-07T07:47:31;102634.77;;;30.82;38.67
42511;BME280;28141;51.120;17.114;2023-09-07T07:50:45;102639.87;;;30.85;38.53
42511;BME280;28141;51.120;17.114;2023-09-07T07:53:58;102633.81;;;30.88;37.88
42511;BME280;28141;51.120;17.114;2023-09-07T07:57:12;102636.51;;;30.95;38.15
42511;BME280;28141;51.120;17.114;2023-09-07T08:00:52;102638.61;;;30.99;38.45
42511;BME280;28141;51.120;17.114;2023-09-07T08:04:06;102616.06;;;30.94;38.19
42511;BME280;28141;51.120;17.114;2023-09-07T08:07:21;102628.58;;;31.10;38.35
42511;BME280;28141;51.120;17.114;2023-09-07T08:10:38;102633.09;;;31.11;38.65
42511;BME280;28141;51.120;17.114;2023-09-07T08:14:21;102628.62;;;31.22;38.42
42511;BME280;28141;51.120;17.114;2023-09-07T08:17:35;102635.23;;;31.39;37.96
42511;BME280;28141;51.120;17.114;2023-09-07T08:20:49;102627.45;;;31.41;38.69
42511;BME280;28141;51.120;17.114;2023-09-07T08:24:03;102571.55;;;31.04;38.06
42511;BME280;28141;51.120;17.114;2023-09-07T08:27:45;102638.65;;;31.41;38.08
42511;BME280;28141;51.120;17.114;2023-09-07T08:31:00;102633.66;;;31.43;38.01
42511;BME280;28141;51.120;17.114;2023-09-07T08:34:18;102631.60;;;31.50;38.50
42511;BME280;28141;51.120;17.114;2023-09-07T08:37:35;102633.94;;;31.53;38.13
42511;BME280;28141;51.120;17.114;2023-09-07T08:41:20;102636.37;;;31.61;38.13
42511;BME280;28141;51.120;17.114;2023-09-07T08:44:37;102624.84;;;31.69;37.94
42511;BME280;28141;51.120;17.114;2023-09-07T08:47:52;102626.08;;;31.73;37.17
42511;BME280;28141;51.120;17.114;2023-09-07T08:51:06;102620.46;;;31.73;38.38
42511;BME280;28141;51.120;17.114;2023-09-07T08:54:48;102626.45;;;31.77;37.90
42511;BME280;28141;51.120;17.114;2023-09-07T08:58:03;102620.37;;;31.80;38.42
42511;BME280;28141;51.120;17.114;2023-09-07T09:01:18;102622.80;;;31.88;37.81
42511;BME280;28141;51.120;17.114;2023-09-07T09:04:32;102623.76;;;31.82;37.08
42511;BME280;28141;51.120;17.114;2023-09-07T09:08:13;102624.50;;;31.77;37.29
42511;BME280;28141;51.120;17.114;2023-09-07T09:11:27;102628.64;;;31.75;37.04
42511;BME280;28141;51.120;17.114;2023-09-07T09:14:43;102621.70;;;31.77;37.84
42511;BME280;28141;51.120;17.114;2023-09-07T09:17:57;102622.18;;;31.74;36.30
42511;BME280;28141;51.120;17.114;2023-09-07T09:21:38;102616.43;;;31.69;36.86
42511;BME280;28141;51.120;17.114;2023-09-07T09:24:51;102612.54;;;31.70;37.20
42511;BME280;28141;51.120;17.114;2023-09-07T09:28:05;102620.94;;;31.70;36.35
42511;BME280;28141;51.120;17.114;2023-09-07T09:31:20;102611.96;;;31.68;36.70
42511;BME280;28141;51.120;17.114;2023-09-07T09:35:01;102627.05;;;31.67;36.58
42511;BME280;28141;51.120;17.114;2023-09-07T09:38:17;102621.68;;;31.66;36.55
42511;BME280;28141;51.120;17.114;2023-09-07T09:41:32;102611.34;;;31.66;36.41
42511;BME280;28141;51.120;17.114;2023-09-07T09:44:49;102612.54;;;31.70;36.22
42511;BME280;28141;51.120;17.114;2023-09-07T09:48:34;102611.34;;;31.66;36.25
42511;BME280;28141;51.120;17.114;2023-09-07T09:51:49;102615.33;;;31.70;36.23
42511;BME280;28141;51.120;17.114;2023-09-07T09:55:08;102605.97;;;31.65;35.92
42511;BME280;28141;51.120;17.114;2023-09-07T09:58:26;102610.00;;;31.69;36.65
42511;BME280;28141;51.120;17.114;2023-09-07T10:02:09;102609.81;;;30.80;36.54
42511;BME280;28141;51.120;17.114;2023-09-07T10:05:24;102602.84;;;30.35;36.41
42511;BME280;28141;51.120;17.114;2023-09-07T10:08:39;102606.29;;;30.85;37.43
42511;BME280;28141;51.120;17.114;2023-09-07T10:11:53;102605.60;;;31.19;36.87
42511;BME280;28141;51.120;17.114;2023-09-07T10:15:34;102602.50;;;31.51;37.26
42511;BME280;28141;51.120;17.114;2023-09-07T10:18:52;102610.83;;;31.69;37.35
42511;BME280;28141;51.120;17.114;2023-09-07T10:22:06;102604.98;;;31.82;37.86
42511;BME280;28141;51.120;17.114;2023-09-07T10:25:21;102600.23;;;31.95;37.15
42511;BME280;28141;51.120;17.114;2023-09-07T10:29:02;102606.70;;;32.07;37.15
42511;BME280;28141;51.120;17.114;2023-09-07T10:32:18;102592.80;;;32.12;37.53
42511;BME280;28141;51.120;17.114;2023-09-07T10:35:35;102585.24;;;32.12;37.01
42511;BME280;28141;51.120;17.114;2023-09-07T10:38:52;102592.05;;;32.16;36.48
42511;BME280;28141;51.120;17.114;2023-09-07T10:42:35;102590.09;;;32.17;36.79
42511;BME280;28141;51.120;17.114;2023-09-07T10:45:50;102586.35;;;32.23;37.20
42511;BME280;28141;51.120;17.114;2023-09-07T10:49:07;102582.42;;;32.24;36.78
42511;BME280;28141;51.120;17.114;2023-09-07T10:52:23;102576.34;;;31.57;38.22
42511;BME280;28141;51.120;17.114;2023-09-07T10:56:05;102583.09;;;30.30;38.32
42511;BME280;28141;51.120;17.114;2023-09-07T10:59:18;102575.13;;;29.47;38.53
42511;BME280;28141;51.120;17.114;2023-09-07T11:02:32;102570.10;;;29.31;40.70
42511;BME280;28141;51.120;17.114;2023-09-07T11:05:48;102563.55;;;29.44;42.19
42511;BME280;28141;51.120;17.114;2023-09-07T11:09:30;102571.16;;;29.80;41.68
42511;BME280;28141;51.120;17.114;2023-09-07T11:12:46;102568.36;;;30.04;41.08
42511;BME280;28141;51.120;17.114;2023-09-07T11:16:00;102566.82;;;30.27;40.78
42511;BME280;28141;51.120;17.114;2023-09-07T11:19:14;102561.42;;;30.43;39.37
42511;BME280;28141;51.120;17.114;2023-09-07T11:22:59;102562.84;;;30.53;39.03
42511;BME280;28141;51.120;17.114;2023-09-07T11:26:14;102562.20;;;30.69;38.76
42511;BME280;28141;51.120;17.114;2023-09-07T11:29:32;102557.35;;;30.76;38.68
42511;BME280;28141;51.120;17.114;2023-09-07T11:32:46;102561.91;;;30.89;38.04
42511;BME280;28141;51.120;17.114;2023-09-07T11:36:26;102563.73;;;30.95;38.10
42511;BME280;28141;51.120;17.114;2023-09-07T11:39:41;102553.41;;;30.95;38.23
42511;BME280;28141;51.120;17.114;2023-09-07T11:42:55;102560.20;;;30.58;37.88
42511;BME280;28141;51.120;17.114;2023-09-07T11:46:08;102556.52;;;29.84;38.78
42511;BME280;28141;51.120;17.114;2023-09-07T11:49:50;102553.04;;;29.64;40.43
42511;BME280;28141;51.120;17.114;2023-09-07T11:53:06;102546.52;;;29.95;41.53
42511;BME280;28141;51.120;17.114;2023-09-07T11:56:21;102551.33;;;30.42;40.86
42511;BME280;28141;51.120;17.114;2023-09-07T11:59:35;102544.73;;;30.85;40.09
42511;BME280;28141;51.120;17.114;2023-09-07T12:03:15;102540.48;;;31.12;39.18
42511;BME280;28141;51.120;17.114;2023-09-07T12:06:29;102533.05;;;31.30;39.18
42511;BME280;28141;51.120;17.114;2023-09-07T12:09:42;102542.45;;;31.24;38.24
42511;BME280;28141;51.120;17.114;2023-09-07T12:12:57;102544.91;;;30.72;37.88
42511;BME280;28141;51.120;17.114;2023-09-07T12:16:37;102547.18;;;30.15;37.74
42511;BME280;28141;51.120;17.114;2023-09-07T12:19:51;102538.85;;;30.27;39.77
42511;BME280;28141;51.120;17.114;2023-09-07T12:23:05;102537.72;;;30.64;40.69
42511;BME280;28141;51.120;17.114;2023-09-07T12:26:18;102537.13;;;31.04;40.27
42511;BME280;28141;51.120;17.114;2023-09-07T12:30:01;102539.52;;;31.30;39.20
42511;BME280;28141;51.120;17.114;2023-09-07T12:33:19;102530.42;;;31.70;38.75
42511;BME280;28141;51.120;17.114;2023-09-07T12:36:33;102529.47;;;31.76;38.18
42511;BME280;28141;51.120;17.114;2023-09-07T12:39:47;102518.34;;;31.23;37.76
42511;BME280;28141;51.120;17.114;2023-09-07T12:43:27;102521.61;;;30.78;37.65
42511;BME280;28141;51.120;17.114;2023-09-07T12:46:40;102523.46;;;30.36;38.08
42511;BME280;28141;51.120;17.114;2023-09-07T12:49:54;102520.35;;;30.74;40.35
42511;BME280;28141;51.120;17.114;2023-09-07T12:53:09;102506.99;;;31.17;40.37
42511;BME280;28141;51.120;17.114;2023-09-07T12:56:49;102509.23;;;31.74;39.10
42511;BME280;28141;51.120;17.114;2023-09-07T13:00:04;102493.54;;;32.13;38.46
42511;BME280;28141;51.120;17.114;2023-09-07T13:03:20;102494.10;;;32.38;38.09
42511;BME280;28141;51.120;17.114;2023-09-07T13:06:34;102490.25;;;32.27;36.75
42511;BME280;28141;51.120;17.114;2023-09-07T13:10:14;102494.75;;;31.65;35.83
42511;BME280;28141;51.120;17.114;2023-09-07T13:13:28;102493.99;;;31.35;35.59
42511;BME280;28141;51.120;17.114;2023-09-07T13:16:45;102488.02;;;31.54;35.95
42511;BME280;28141;51.120;17.114;2023-09-07T13:19:59;102477.23;;;32.21;37.33
42511;BME280;28141;51.120;17.114;2023-09-07T13:23:39;102478.59;;;32.76;37.61
42511;BME280;28141;51.120;17.114;2023-09-07T13:26:55;102484.25;;;33.26;36.60
42511;BME280;28141;51.120;17.114;2023-09-07T13:30:10;102479.95;;;33.57;35.79
42511;BME280;28141;51.120;17.114;2023-09-07T13:33:25;102477.84;;;33.86;35.06
42511;BME280;28141;51.120;17.114;2023-09-07T13:37:08;102476.98;;;33.63;34.42
42511;BME280;28141;51.120;17.114;2023-09-07T13:40:22;102487.98;;;33.31;33.44
42511;BME280;28141;51.120;17.114;2023-09-07T13:43:37;102480.98;;;32.84;32.91
42511;BME280;28141;51.120;17.114;2023-09-07T13:46:52;102486.50;;;32.50;33.61
42511;BME280;28141;51.120;17.114;2023-09-07T13:50:37;102474.33;;;32.73;36.45
42511;BME280;28141;51.120;17.114;2023-09-07T13:53:51;102471.30;;;33.08;36.33
42511;BME280;28141;51.120;17.114;2023-09-07T13:57:05;102472.62;;;33.56;35.79
42511;BME280;28141;51.120;17.114;2023-09-07T14:01:03;102465.23;;;34.32;34.58
42511;BME280;28141;51.120;17.114;2023-09-07T14:04:17;102469.05;;;34.74;33.40
42511;BME280;28141;51.120;17.114;2023-09-07T14:07:31;102467.90;;;34.97;33.21
42511;BME280;28141;51.120;17.114;2023-09-07T14:10:44;102478.20;;;35.19;32.90
42511;BME280;28141;51.120;17.114;2023-09-07T14:14:23;102468.54;;;35.41;32.21
42511;BME280;28141;51.120;17.114;2023-09-07T14:17:37;102459.09;;;35.63;31.79
42511;BME280;28141;51.120;17.114;2023-09-07T14:20:51;102460.33;;;35.77;31.62
42511;BME280;28141;51.120;17.114;2023-09-07T14:24:06;102465.48;;;35.90;30.86
42511;BME280;28141;51.120;17.114;2023-09-07T14:27:44;102444.05;;;35.94;30.81
42511;BME280;28141;51.120;17.114;2023-09-07T14:30:58;102470.08;;;36.16;30.68
42511;BME280;28141;51.120;17.114;2023-09-07T14:34:17;102449.27;;;36.28;30.56
42511;BME280;28141;51.120;17.114;2023-09-07T14:37:31;102454.34;;;36.36;30.29
42511;BME280;28141;51.120;17.114;2023-09-07T14:41:10;102450.99;;;36.39;30.13
42511;BME280;28141;51.120;17.114;2023-09-07T14:44:33;102442.55;;;36.44;30.03
42511;BME280;28141;51.120;17.114;2023-09-07T14:47:46;102449.02;;;36.49;30.10
42511;BME280;28141;51.120;17.114;2023-09-07T14:51:01;102453.84;;;36.59;29.99
42511;BME280;28141;51.120;17.114;2023-09-07T14:54:44;102458.09;;;36.62;29.70
42511;BME280;28141;51.120;17.114;2023-09-07T14:57:58;102446.81;;;36.67;29.69
42511;BME280;28141;51.120;17.114;2023-09-07T15:01:11;102444.01;;;36.72;29.24
42511;BME280;28141;51.120;17.114;2023-09-07T15:04:25;102442.60;;;36.74;29.83
42511;BME280;28141;51.120;17.114;2023-09-07T15:07:39;102439.21;;;36.82;29.53
42511;BME280;28141;51.120;17.114;2023-09-07T15:11:21;102440.08;;;36.88;29.35
42511;BME280;28141;51.120;17.114;2023-09-07T15:14:37;102436.39;;;36.98;29.18
42511;BME280;28141;51.120;17.114;2023-09-07T15:17:51;102433.83;;;37.01;28.73
42511;BME280;28141;51.120;17.114;2023-09-07T15:21:05;102430.73;;;37.08;29.24
42511;BME280;28141;51.120;17.114;2023-09-07T15:24:44;102436.94;;;37.25;28.93
42511;BME280;28141;51.120;17.114;2023-09-07T15:27:58;102428.17;;;37.26;28.93
42511;BME280;28141;51.120;17.114;2023-09-07T15:31:12;102436.05;;;37.45;28.54
42511;BME280;28141;51.120;17.114;2023-09-07T15:34:26;102431.81;;;37.47;28.34
42511;BME280;28141;51.120;17.114;2023-09-07T15:38:06;102422.16;;;37.53;28.51
42511;BME280;28141;51.120;17.114;2023-09-07T15:41:20;102424.98;;;37.58;28.50
42511;BME280;28141;51.120;17.114;2023-09-07T15:44:33;102423.28;;;37.73;28.58
42511;BME280;28141;51.120;17.114;2023-09-07T15:47:47;102427.43;;;37.90;28.31
42511;BME280;28141;51.120;17.114;2023-09-07T15:51:01;102418.09;;;37.90;28.10
42511;BME280;28141;51.120;17.114;2023-09-07T15:54:41;102418.32;;;37.98;28.14
42511;BME280;28141;51.120;17.114;2023-09-07T15:57:55;102415.78;;;38.07;28.08
42511;BME280;28141;51.120;17.114;2023-09-07T16:01:10;102409.25;;;38.07;28.06
42511;BME280;28141;51.120;17.114;2023-09-07T16:04:24;102408.14;;;37.97;28.05
42511;BME280;28141;51.120;17.114;2023-09-07T16:08:04;102409.33;;;37.91;28.22
42511;BME280;28141;51.120;17.114;2023-09-07T16:11:18;102414.70;;;37.93;28.22
42511;BME280;28141;51.120;17.114;2023-09-07T16:14:33;102416.39;;;37.94;28.10
42511;BME280;28141;51.120;17.114;2023-09-07T16:17:47;102417.53;;;37.88;28.36
42511;BME280;28141;51.120;17.114;2023-09-07T16:21:27;102420.40;;;37.83;28.31
42511;BME280;28141;51.120;17.114;2023-09-07T16:24:41;102422.67;;;37.81;28.39
42511;BME280;28141;51.120;17.114;2023-09-07T16:27:55;102415.88;;;37.77;28.33
42511;BME280;28141;51.120;17.114;2023-09-07T16:31:09;102421.30;;;37.73;28.25
42511;BME280;28141;51.120;17.114;2023-09-07T16:34:49;102421.30;;;37.68;28.48
42511;BME280;28141;51.120;17.114;2023-09-07T16:38:03;102421.02;;;37.64;28.39
42511;BME280;28141;51.120;17.114;2023-09-07T16:41:17;102418.20;;;37.59;28.74
42511;BME280;28141;51.120;17.114;2023-09-07T16:44:31;102422.16;;;37.58;28.73
42511;BME280;28141;51.120;17.114;2023-09-07T16:48:11;102421.02;;;37.54;28.68
42511;BME280;28141;51.120;17.114;2023-09-07T16:51:25;102421.90;;;37.50;28.75
42511;BME280;28141;51.120;17.114;2023-09-07T16:54:39;102434.63;;;37.47;29.04
42511;BME280;28141;51.120;17.114;2023-09-07T16:57:55;102427.84;;;37.43;28.78
42511;BME280;28141;51.120;17.114;2023-09-07T17:01:36;102427.30;;;37.36;28.85
42511;BME280;28141;51.120;17.114;2023-09-07T17:04:50;102427.91;;;37.28;29.03
42511;BME280;28141;51.120;17.114;2023-09-07T17:08:05;102431.86;;;37.22;29.29
42511;BME280;28141;51.120;17.114;2023-09-07T17:11:19;102430.17;;;37.16;29.30
42511;BME280;28141;51.120;17.114;2023-09-07T17:14:59;102439.21;;;37.08;29.19
42511;BME280;28141;51.120;17.114;2023-09-07T17:18:13;102432.45;;;36.99;29.30
42511;BME280;28141;51.120;17.114;2023-09-07T17:21:27;102424.80;;;36.94;29.18